createdAt,value
2022-11-04T00:00:16.789Z,13.68
2022-11-04T00:02:43.448Z,13.71
2022-11-04T00:05:10.068Z,13.79
2022-11-04T00:07:36.658Z,13.82
2022-11-04T00:10:03.501Z,13.91
2022-11-04T00:12:30.310Z,13.95
2022-11-04T00:14:56.823Z,13.98
2022-11-04T00:17:23.317Z,14.00
2022-11-04T00:19:54.535Z,14.05
2022-11-04T00:22:21.026Z,14.07
2022-11-04T00:24:47.516Z,14.10
2022-11-04T00:27:21.302Z,14.10
2022-11-04T00:29:47.950Z,14.09
2022-11-04T00:32:14.437Z,14.10
2022-11-04T00:34:41.175Z,14.10
2022-11-04T00:37:07.808Z,14.10
2022-11-04T00:39:34.342Z,14.06
2022-11-04T00:42:00.993Z,14.05
2022-11-04T00:44:27.424Z,14.02
2022-11-04T00:46:53.930Z,14.01
2022-11-04T00:49:20.440Z,13.96
2022-11-04T00:51:47.056Z,13.91
2022-11-04T00:54:13.761Z,13.86
2022-11-04T00:56:40.975Z,13.78
2022-11-04T00:59:10.387Z,13.68
2022-11-04T01:01:40.641Z,13.57
2022-11-04T01:04:07.368Z,13.50
2022-11-04T01:06:33.826Z,13.38
2022-11-04T01:09:03.767Z,13.29
2022-11-04T01:11:30.401Z,13.20
2022-11-04T01:13:58.068Z,13.06
2022-11-04T01:16:25.572Z,12.96
2022-11-04T01:18:52.234Z,12.86
2022-11-04T01:21:19.371Z,12.76
2022-11-04T01:23:46.433Z,12.68
2022-11-04T01:26:19.639Z,12.59
2022-11-04T01:28:46.740Z,12.52
2022-11-04T01:31:15.675Z,12.42
2022-11-04T01:33:42.152Z,12.37
2022-11-04T01:36:10.603Z,12.29
2022-11-04T01:38:37.310Z,12.23
2022-11-04T01:41:04.762Z,12.16
2022-11-04T01:43:44.791Z,12.10
2022-11-04T01:46:39.222Z,11.98
2022-11-04T01:49:27.630Z,11.95
2022-11-04T01:52:00.816Z,11.94
2022-11-04T01:54:28.081Z,11.87
2022-11-04T01:56:56.715Z,11.85
2022-11-04T01:59:30.116Z,11.78
2022-11-04T02:01:56.829Z,11.73
2022-11-04T02:04:23.599Z,11.72
2022-11-04T02:06:52.628Z,11.70
2022-11-04T02:09:20.801Z,11.67
2022-11-04T02:11:56.003Z,11.67
2022-11-04T02:14:26.537Z,11.67
2022-11-04T02:17:00.917Z,11.63
2022-11-04T02:19:48.506Z,11.64
2022-11-04T02:22:39.413Z,11.59
2022-11-04T02:25:19.017Z,11.59
2022-11-04T02:28:16.076Z,11.57
2022-11-04T02:31:33.211Z,11.55
2022-11-04T02:34:22.032Z,11.52
2022-11-04T02:37:02.082Z,11.53
2022-11-04T02:39:51.516Z,11.53
2022-11-04T02:42:36.114Z,11.54
2022-11-04T02:45:19.696Z,11.53
2022-11-04T02:47:51.913Z,11.53
2022-11-04T02:50:34.793Z,11.53
2022-11-04T02:53:21.453Z,11.49
2022-11-04T02:55:53.054Z,11.54
2022-11-04T02:58:29.104Z,11.55
2022-11-04T03:00:58.860Z,11.56
2022-11-04T03:03:30.991Z,11.56
2022-11-04T03:05:59.516Z,11.55
2022-11-04T03:08:34.835Z,11.56
2022-11-04T03:11:08.007Z,11.56
2022-11-04T03:13:40.419Z,11.56
2022-11-04T03:16:13.742Z,11.57
2022-11-04T03:19:05.467Z,11.55
2022-11-04T03:21:37.861Z,11.54
2022-11-04T03:24:05.512Z,11.55
2022-11-04T03:26:39.310Z,11.54
2022-11-04T03:29:25.945Z,11.54
2022-11-04T03:32:06.817Z,11.55
2022-11-04T03:34:33.525Z,11.56
2022-11-04T03:37:00.869Z,11.59
2022-11-04T03:39:27.572Z,11.59
2022-11-04T03:41:57.167Z,11.60
2022-11-04T03:44:24.418Z,11.64
2022-11-04T03:46:54.913Z,11.64
2022-11-04T03:49:23.204Z,11.65
2022-11-04T03:51:53.089Z,11.65
2022-11-04T03:54:20.172Z,11.67
2022-11-04T03:57:02.361Z,11.67
2022-11-04T03:59:59.818Z,11.69
2022-11-04T04:02:46.775Z,11.69
2022-11-04T04:05:30.683Z,11.69
2022-11-04T04:08:17.534Z,11.69
2022-11-04T04:11:02.697Z,11.69
2022-11-04T04:13:41.294Z,11.69
2022-11-04T04:16:19.334Z,11.70
2022-11-04T04:18:57.562Z,11.70
2022-11-04T04:21:41.459Z,11.69
2022-11-04T04:24:11.150Z,11.70
2022-11-04T04:26:40.608Z,11.70
2022-11-04T04:29:09.060Z,11.69
2022-11-04T04:31:38.463Z,11.68
2022-11-04T04:34:05.565Z,11.67
2022-11-04T04:36:36.346Z,11.66
2022-11-04T04:39:07.331Z,11.65
2022-11-04T04:41:33.967Z,11.65
2022-11-04T04:44:01.812Z,11.64
2022-11-04T04:46:29.752Z,11.64
2022-11-04T04:49:04.324Z,11.61
2022-11-04T04:51:31.569Z,11.60
2022-11-04T04:53:58.070Z,11.60
2022-11-04T04:56:24.619Z,11.62
2022-11-04T04:58:51.216Z,11.62
2022-11-04T05:01:17.836Z,11.64
2022-11-04T05:03:45.405Z,11.64
2022-11-04T05:06:12.100Z,11.65
2022-11-04T05:08:38.549Z,11.65
2022-11-04T05:11:05.707Z,11.66
2022-11-04T05:13:32.206Z,11.65
2022-11-04T05:16:11.525Z,11.64
2022-11-04T05:18:38.661Z,11.65
2022-11-04T05:21:11.901Z,11.64
2022-11-04T05:23:38.825Z,11.64
2022-11-04T05:26:05.980Z,11.64
2022-11-04T05:28:32.839Z,11.63
2022-11-04T05:31:03.366Z,11.62
2022-11-04T05:33:30.174Z,11.61
2022-11-04T05:36:09.228Z,11.59
2022-11-04T05:38:36.417Z,11.57
2022-11-04T05:41:03.850Z,11.56
2022-11-04T05:43:30.294Z,11.54
2022-11-04T05:45:58.901Z,11.53
2022-11-04T05:48:25.712Z,11.52
2022-11-04T05:50:52.569Z,11.49
2022-11-04T05:53:19.310Z,11.47
2022-11-04T05:55:45.914Z,11.45
2022-11-04T05:58:12.398Z,11.43
2022-11-04T06:00:38.947Z,11.40
2022-11-04T06:03:05.663Z,11.39
2022-11-04T06:05:32.332Z,11.36
2022-11-04T06:07:58.974Z,11.32
2022-11-04T06:10:25.679Z,11.29
2022-11-04T06:12:52.404Z,11.27
2022-11-04T06:15:19.050Z,11.25
2022-11-04T06:17:45.542Z,11.23
2022-11-04T06:20:12.212Z,11.23
2022-11-04T06:22:38.666Z,11.22
2022-11-04T06:25:05.243Z,11.23
2022-11-04T06:27:31.781Z,11.22
2022-11-04T06:29:58.233Z,11.22
2022-11-04T06:32:24.693Z,11.22
2022-11-04T06:34:51.320Z,11.23
2022-11-04T06:37:17.792Z,11.22
2022-11-04T06:39:44.332Z,11.24
2022-11-04T06:42:11.008Z,11.24
2022-11-04T06:44:37.475Z,11.24
2022-11-04T06:47:04.262Z,11.21
2022-11-04T06:49:30.735Z,11.22
2022-11-04T06:51:57.261Z,11.22
2022-11-04T06:54:23.902Z,11.22
2022-11-04T06:56:50.344Z,11.22
2022-11-04T06:59:19.776Z,11.18
2022-11-04T07:01:47.012Z,11.15
2022-11-04T07:04:13.649Z,11.11
2022-11-04T07:06:44.175Z,11.05
2022-11-04T07:09:13.718Z,11.01
2022-11-04T07:11:41.397Z,10.95
2022-11-04T07:14:08.566Z,10.88
2022-11-04T07:16:35.202Z,10.85
2022-11-04T07:19:01.688Z,10.83
2022-11-04T07:21:28.834Z,10.80
2022-11-04T07:23:55.468Z,10.78
2022-11-04T07:26:22.013Z,10.70
2022-11-04T07:28:49.042Z,10.66
2022-11-04T07:31:15.813Z,10.63
2022-11-04T07:33:42.495Z,10.61
2022-11-04T07:36:12.434Z,10.59
2022-11-04T07:38:39.031Z,10.58
2022-11-04T07:41:05.813Z,10.58
2022-11-04T07:43:32.448Z,10.57
2022-11-04T07:46:04.000Z,10.57
2022-11-04T07:48:30.773Z,10.57
2022-11-04T07:51:01.164Z,10.56
2022-11-04T07:53:29.618Z,10.58
2022-11-04T07:55:57.011Z,10.59
2022-11-04T07:58:23.981Z,10.60
2022-11-04T08:00:50.704Z,10.63
2022-11-04T08:03:17.709Z,10.63
2022-11-04T08:05:44.278Z,10.64
2022-11-04T08:08:11.019Z,10.63
2022-11-04T08:10:37.643Z,10.62
2022-11-04T08:13:04.355Z,10.60
2022-11-04T08:15:30.827Z,10.59
2022-11-04T08:17:57.300Z,10.57
2022-11-04T08:20:24.020Z,10.57
2022-11-04T08:22:50.531Z,10.55
2022-11-04T08:25:17.195Z,10.51
2022-11-04T08:27:44.015Z,10.49
2022-11-04T08:30:11.055Z,10.44
2022-11-04T08:32:37.708Z,10.42
2022-11-04T08:35:04.545Z,10.40
2022-11-04T08:37:31.167Z,10.38
2022-11-04T08:39:57.692Z,10.37
2022-11-04T08:42:24.258Z,10.36
2022-11-04T08:44:51.602Z,10.38
2022-11-04T08:47:18.538Z,10.37
2022-11-04T08:49:45.296Z,10.38
2022-11-04T08:52:11.767Z,10.40
2022-11-04T08:54:38.249Z,10.41
2022-11-04T08:57:04.821Z,10.43
2022-11-04T08:59:31.670Z,10.47
2022-11-04T09:01:58.221Z,10.48
2022-11-04T09:04:24.874Z,10.50
2022-11-04T09:06:51.529Z,10.52
2022-11-04T09:09:18.766Z,10.55
2022-11-04T09:11:46.017Z,10.57
2022-11-04T09:14:13.081Z,10.58
2022-11-04T09:16:41.211Z,10.60
2022-11-04T09:19:07.883Z,10.52
2022-11-04T09:21:34.614Z,10.62
2022-11-04T09:24:01.188Z,10.64
2022-11-04T09:26:28.137Z,10.68
2022-11-04T09:28:55.721Z,10.69
2022-11-04T09:31:22.696Z,10.71
2022-11-04T09:33:49.413Z,10.74
2022-11-04T09:36:16.340Z,10.75
2022-11-04T09:38:43.396Z,10.78
2022-11-04T09:41:22.077Z,10.78
2022-11-04T09:43:55.847Z,10.80
2022-11-04T09:46:24.013Z,10.83
2022-11-04T09:48:56.490Z,10.84
2022-11-04T09:51:52.445Z,10.87
2022-11-04T09:54:26.605Z,10.87
2022-11-04T09:56:57.741Z,10.91
2022-11-04T09:59:28.623Z,10.92
2022-11-04T10:02:22.808Z,10.93
2022-11-04T10:04:49.434Z,10.94
2022-11-04T10:07:42.309Z,10.93
2022-11-04T10:10:16.401Z,10.93
2022-11-04T10:12:53.574Z,10.93
2022-11-04T10:15:56.455Z,10.91
2022-11-04T10:18:49.224Z,10.89
2022-11-04T10:21:24.939Z,10.88
2022-11-04T10:24:01.092Z,10.88
2022-11-04T10:26:37.273Z,10.88
2022-11-04T10:29:14.636Z,10.87
2022-11-04T10:31:44.838Z,10.85
2022-11-04T10:34:31.913Z,10.84
2022-11-04T10:36:58.878Z,10.84
2022-11-04T10:39:35.328Z,10.81
2022-11-04T10:42:02.069Z,10.80
2022-11-04T10:44:32.473Z,10.78
2022-11-04T10:47:04.354Z,10.77
2022-11-04T10:49:36.680Z,10.75
2022-11-04T10:52:04.065Z,10.75
2022-11-04T10:54:39.325Z,10.70
2022-11-04T10:57:06.135Z,10.69
2022-11-04T10:59:51.218Z,10.65
2022-11-04T11:02:17.879Z,10.65
2022-11-04T11:04:44.810Z,10.64
2022-11-04T11:07:14.718Z,10.65
2022-11-04T11:09:41.261Z,10.66
2022-11-04T11:12:44.064Z,10.67
2022-11-04T11:15:00.140Z,10.69
2022-11-04T11:17:32.751Z,10.71
2022-11-04T11:20:03.043Z,10.75
2022-11-04T11:22:39.895Z,10.76
2022-11-04T11:25:26.918Z,10.77
2022-11-04T11:28:00.547Z,10.78
2022-11-04T11:30:45.101Z,10.80
2022-11-04T11:33:23.502Z,10.81
2022-11-04T11:35:49.966Z,10.84
2022-11-04T11:38:29.680Z,10.85
2022-11-04T11:41:29.985Z,10.87
2022-11-04T11:44:01.857Z,10.88
2022-11-04T11:46:31.789Z,10.89
2022-11-04T11:49:01.945Z,10.90
2022-11-04T11:51:32.860Z,10.91
2022-11-04T11:54:27.811Z,10.87
2022-11-04T11:57:13.338Z,10.89
2022-11-04T12:03:11.375Z,10.89
2022-11-04T12:06:20.669Z,10.86
2022-11-04T12:12:10.270Z,10.85
2022-11-04T12:15:01.478Z,10.83
2022-11-04T12:17:45.946Z,10.83
2022-11-04T12:20:23.732Z,10.82
2022-11-04T12:23:09.269Z,10.81
2022-11-04T12:25:51.725Z,10.82
2022-11-04T12:28:45.604Z,10.81
2022-11-04T12:31:31.031Z,10.81
2022-11-04T12:34:06.309Z,10.81
2022-11-04T12:36:47.973Z,10.83
2022-11-04T12:39:39.052Z,10.83
2022-11-04T12:42:22.244Z,10.85
2022-11-04T12:45:05.528Z,10.86
2022-11-04T12:47:36.808Z,10.90
2022-11-04T12:50:24.824Z,10.89
2022-11-04T12:53:00.367Z,10.83
2022-11-04T12:55:56.079Z,10.91
2022-11-04T12:58:37.413Z,10.90
2022-11-04T13:01:15.639Z,10.92
2022-11-04T13:04:07.078Z,10.92
2022-11-04T13:06:41.250Z,10.93
2022-11-04T13:09:29.317Z,10.94
2022-11-04T13:12:08.989Z,10.95
2022-11-04T13:14:44.216Z,10.97
2022-11-04T13:17:15.454Z,10.95
2022-11-04T13:19:58.733Z,10.93
2022-11-04T13:22:35.511Z,10.93
2022-11-04T13:25:12.550Z,10.89
2022-11-04T13:27:48.671Z,10.83
2022-11-04T13:30:21.366Z,10.80
2022-11-04T13:32:58.308Z,10.79
2022-11-04T13:35:31.570Z,10.75
2022-11-04T13:38:09.123Z,10.73
2022-11-04T13:41:16.120Z,10.69
2022-11-04T13:43:52.004Z,10.64
2022-11-04T13:46:24.520Z,10.64
2022-11-04T13:49:00.298Z,10.66
2022-11-04T13:51:38.343Z,10.65
2022-11-04T13:54:05.538Z,10.57
2022-11-04T13:56:37.805Z,10.64
2022-11-04T13:59:27.239Z,10.65
2022-11-04T14:02:11.922Z,10.65
2022-11-04T14:04:41.280Z,10.67
2022-11-04T14:07:11.074Z,10.63
2022-11-04T14:09:43.701Z,10.58
2022-11-04T14:12:10.251Z,10.60
2022-11-04T14:14:42.119Z,10.57
2022-11-04T14:17:34.412Z,10.56
2022-11-04T14:20:11.576Z,10.52
2022-11-04T14:22:44.021Z,10.47
2022-11-04T14:25:21.102Z,10.46
2022-11-04T14:27:49.942Z,10.43
2022-11-04T14:30:46.392Z,10.40
2022-11-04T14:33:28.921Z,10.37
2022-11-04T14:35:57.471Z,10.38
2022-11-04T14:38:28.441Z,10.36
2022-11-04T14:41:19.804Z,10.36
2022-11-04T14:43:47.615Z,10.38
2022-11-04T14:46:21.677Z,10.36
2022-11-04T14:48:51.838Z,10.38
2022-11-04T14:51:25.971Z,10.39
2022-11-04T14:53:59.430Z,10.39
2022-11-04T14:56:26.274Z,10.40
2022-11-04T14:58:58.552Z,10.39
2022-11-04T15:01:33.900Z,10.40
2022-11-04T15:04:18.288Z,10.41
2022-11-04T15:06:57.817Z,10.37
2022-11-04T15:09:28.299Z,10.39
2022-11-04T15:12:13.165Z,10.36
2022-11-04T15:14:39.850Z,10.37
2022-11-04T15:17:06.409Z,10.39
2022-11-04T15:19:35.073Z,10.40
2022-11-04T15:22:04.911Z,10.42
2022-11-04T15:24:31.922Z,10.43
2022-11-04T15:27:05.250Z,10.43
2022-11-04T15:29:32.003Z,10.45
2022-11-04T15:32:04.582Z,10.44
2022-11-04T15:34:32.921Z,10.44
2022-11-04T15:37:02.626Z,10.43
2022-11-04T15:39:31.162Z,10.42
2022-11-04T15:42:02.743Z,10.42
2022-11-04T15:44:32.830Z,10.40
2022-11-04T15:47:18.237Z,10.36
2022-11-04T15:49:49.752Z,10.36
2022-11-04T15:52:27.207Z,10.32
2022-11-04T15:54:58.908Z,10.28
2022-11-04T15:57:32.360Z,10.27
2022-11-04T16:00:02.426Z,10.25
2022-11-04T16:02:45.673Z,10.23
2022-11-04T16:05:12.284Z,10.23
2022-11-04T16:07:44.820Z,10.20
2022-11-04T16:10:50.896Z,10.16
2022-11-04T16:13:17.353Z,10.15
2022-11-04T16:15:50.388Z,10.14
2022-11-04T16:18:51.243Z,10.12
2022-11-04T16:21:28.052Z,10.11
2022-11-04T16:24:04.934Z,10.09
2022-11-04T16:26:37.043Z,10.08
2022-11-04T16:29:08.509Z,10.07
2022-11-04T16:31:36.774Z,10.04
2022-11-04T16:34:05.858Z,10.02
2022-11-04T16:36:35.535Z,9.97
2022-11-04T16:39:04.450Z,9.92
2022-11-04T16:41:35.801Z,9.86
2022-11-04T16:44:03.761Z,9.79
2022-11-04T16:46:32.304Z,9.74
2022-11-04T16:48:58.956Z,9.67
2022-11-04T16:51:25.677Z,9.60
2022-11-04T16:53:53.330Z,9.52
2022-11-04T16:56:25.173Z,9.44
2022-11-04T16:58:52.726Z,9.38
2022-11-04T17:01:19.786Z,9.31
2022-11-04T17:03:46.578Z,9.26
2022-11-04T17:06:15.147Z,9.23
2022-11-04T17:08:42.271Z,9.21
2022-11-04T17:11:10.291Z,9.17
2022-11-04T17:13:37.434Z,9.15
2022-11-04T17:16:10.520Z,9.14
2022-11-04T17:18:37.108Z,9.12
2022-11-04T17:21:08.703Z,9.12
2022-11-04T17:23:35.504Z,9.11
2022-11-04T17:26:02.144Z,9.11
2022-11-04T17:28:28.662Z,9.12
2022-11-04T17:30:55.264Z,9.12
2022-11-04T17:33:21.889Z,9.12
2022-11-04T17:35:50.369Z,9.14
2022-11-04T17:38:18.393Z,9.12
2022-11-04T17:40:45.132Z,9.05
2022-11-04T17:43:12.761Z,9.12
2022-11-04T17:45:41.711Z,9.11
2022-11-04T17:48:08.842Z,9.12
2022-11-04T17:50:38.689Z,9.10
2022-11-04T17:53:05.425Z,9.11
2022-11-04T17:55:37.197Z,9.09
2022-11-04T17:58:03.677Z,9.07
2022-11-04T18:00:30.159Z,9.06
2022-11-04T18:02:57.019Z,9.05
2022-11-04T18:05:23.712Z,9.03
2022-11-04T18:07:50.173Z,9.01
2022-11-04T18:10:16.777Z,8.99
2022-11-04T18:12:43.343Z,8.97
2022-11-04T18:15:14.714Z,8.97
2022-11-04T18:17:43.426Z,8.97
2022-11-04T18:20:14.710Z,8.94
2022-11-04T18:22:42.030Z,8.94
2022-11-04T18:25:09.598Z,8.94
2022-11-04T18:27:36.288Z,8.93
2022-11-04T18:30:03.285Z,8.93
2022-11-04T18:32:29.866Z,8.90
2022-11-04T18:34:56.353Z,8.88
2022-11-04T18:37:23.293Z,8.85
2022-11-04T18:39:49.765Z,8.82
2022-11-04T18:42:16.265Z,8.77
2022-11-04T18:44:42.864Z,8.74
2022-11-04T18:47:09.541Z,8.69
2022-11-04T18:49:36.026Z,8.66
2022-11-04T18:52:02.586Z,8.62
2022-11-04T18:54:29.031Z,8.59
2022-11-04T18:56:55.654Z,8.57
2022-11-04T18:59:22.120Z,8.53
2022-11-04T19:01:48.752Z,8.51
2022-11-04T19:04:15.532Z,8.49
2022-11-04T19:06:43.577Z,8.47
2022-11-04T19:11:58.068Z,8.40
2022-11-04T19:14:24.640Z,8.38
2022-11-04T19:16:51.130Z,8.32
2022-11-04T19:19:17.711Z,8.28
2022-11-04T19:21:44.281Z,8.24
2022-11-04T19:24:11.309Z,8.18
2022-11-04T19:26:38.008Z,8.14
2022-11-04T19:29:05.489Z,8.09
2022-11-04T19:31:32.880Z,8.05
2022-11-04T19:34:01.088Z,8.01
2022-11-04T19:36:27.454Z,7.90
2022-11-04T19:38:55.212Z,7.90
2022-11-04T19:41:23.327Z,7.89
2022-11-04T19:43:49.870Z,7.85
2022-11-04T19:46:16.321Z,7.81
2022-11-04T19:48:42.923Z,7.78
2022-11-04T19:51:12.289Z,7.74
2022-11-04T19:53:38.945Z,7.71
2022-11-04T19:56:06.002Z,7.68
2022-11-04T19:58:32.512Z,7.65
2022-11-04T20:01:06.946Z,7.61
2022-11-04T20:03:33.410Z,7.58
2022-11-04T20:05:59.889Z,7.55
2022-11-04T20:08:26.399Z,7.55
2022-11-04T20:10:52.891Z,7.51
2022-11-04T20:13:20.462Z,7.48
2022-11-04T20:15:46.986Z,7.45
2022-11-04T20:18:13.535Z,7.43
2022-11-04T20:20:40.342Z,7.41
2022-11-04T20:23:06.899Z,7.38
2022-11-04T20:25:33.409Z,7.36
2022-11-04T20:28:01.932Z,7.34
2022-11-04T20:30:28.656Z,7.32
2022-11-04T20:32:55.200Z,7.28
2022-11-04T20:35:21.714Z,7.25
2022-11-04T20:37:48.265Z,7.23
2022-11-04T20:40:14.840Z,7.20
2022-11-04T20:42:41.797Z,7.19
2022-11-04T20:45:08.444Z,7.16
2022-11-04T20:47:35.007Z,7.13
2022-11-04T20:50:01.477Z,7.10
2022-11-04T20:52:27.929Z,7.05
2022-11-04T20:54:54.933Z,7.00
2022-11-04T20:57:21.384Z,6.98
2022-11-04T20:59:47.834Z,6.95
2022-11-04T21:02:14.448Z,6.90
2022-11-04T21:04:40.974Z,6.86
2022-11-04T21:07:07.586Z,6.82
2022-11-04T21:09:34.049Z,6.79
2022-11-04T21:12:00.677Z,6.75
2022-11-04T21:14:27.262Z,6.72
2022-11-04T21:16:53.720Z,6.69
2022-11-04T21:19:20.284Z,6.67
2022-11-04T21:21:46.798Z,6.65
2022-11-04T21:24:15.207Z,6.62
2022-11-04T21:26:42.597Z,6.60
2022-11-04T21:29:12.005Z,6.58
2022-11-04T21:31:39.139Z,6.56
2022-11-04T21:34:05.817Z,6.54
2022-11-04T21:36:33.144Z,6.53
2022-11-04T21:39:00.071Z,6.49
2022-11-04T21:41:29.311Z,6.47
2022-11-04T21:43:57.293Z,6.44
2022-11-04T21:46:24.835Z,6.44
2022-11-04T21:48:51.477Z,6.42
2022-11-04T21:51:21.251Z,6.40
2022-11-04T21:53:47.969Z,6.40
2022-11-04T21:56:17.559Z,6.39
2022-11-04T21:58:44.966Z,6.40
2022-11-04T22:01:14.476Z,6.40
2022-11-04T22:03:41.946Z,6.43
2022-11-04T22:06:13.432Z,6.45
2022-11-04T22:08:44.464Z,6.49
2022-11-04T22:11:17.119Z,6.53
2022-11-04T22:13:44.430Z,6.58
2022-11-04T22:16:13.179Z,6.62
2022-11-04T22:18:40.361Z,6.66
2022-11-04T22:21:10.804Z,6.68
2022-11-04T22:23:37.769Z,6.74
2022-11-04T22:26:07.086Z,6.76
2022-11-04T22:28:33.817Z,6.79
2022-11-04T22:31:06.291Z,6.79
2022-11-04T22:33:32.915Z,6.81
2022-11-04T22:35:59.369Z,6.81
2022-11-04T22:38:26.229Z,6.83
2022-11-04T22:40:57.019Z,6.84
2022-11-04T22:43:24.649Z,6.88
2022-11-04T22:45:52.891Z,6.90
2022-11-04T22:48:19.406Z,6.93
2022-11-04T22:50:47.103Z,6.96
2022-11-04T22:53:14.027Z,6.98
2022-11-04T22:55:40.741Z,7.03
2022-11-04T22:58:07.257Z,7.06
2022-11-04T23:00:33.925Z,7.10
2022-11-04T23:03:00.693Z,7.13
2022-11-04T23:05:27.417Z,7.17
2022-11-04T23:07:54.350Z,7.22
2022-11-04T23:10:20.902Z,7.25
2022-11-04T23:12:47.469Z,7.29
2022-11-04T23:15:13.904Z,7.33
2022-11-04T23:17:41.677Z,7.38
2022-11-04T23:20:12.478Z,7.37
2022-11-04T23:22:39.099Z,7.41
2022-11-04T23:25:06.359Z,7.43
2022-11-04T23:27:35.120Z,7.44
2022-11-04T23:30:02.886Z,7.45
2022-11-04T23:32:29.486Z,7.47
2022-11-04T23:34:56.160Z,7.45
2022-11-04T23:37:22.646Z,7.47
2022-11-04T23:39:49.861Z,7.46
2022-11-04T23:42:19.239Z,7.45
2022-11-04T23:44:50.096Z,7.44
2022-11-04T23:47:16.823Z,7.46
2022-11-04T23:49:43.497Z,7.48
2022-11-04T23:52:10.167Z,7.52
2022-11-04T23:54:36.672Z,7.53
2022-11-04T23:57:12.470Z,7.58
2022-11-04T23:59:42.029Z,7.62
